Terminal Aerodrome Forecast
Issued by NWS

Home | Current Version | Previous Version | Text Only | Print | Product List | Glossary On
Versions: 1 2 3 4 5 6 7 8 9 10 11 12 13 14 15 16 17
000
FTUS41 KGYX 251720
TAFMHT
TAF
KMHT 251720Z 2518/2618 30008KT P6SM SCT110
     FM252100 25007KT P6SM BKN060
     FM252300 25006KT P6SM BKN250
     FM260400 26004KT P6SM SCT090=

USA.gov is the U.S. government's official web portal to all federal, state and local government web resources and services.